CheckWX is a tool to help pilots better visualize weather data.  It is not intended as a substitute for an official pre-flight weather briefing.

04:09:10 UTC

KRWV METAR
Caldwell Municipal Airport
Caldwell, Texas, USA
Current

39 mins ago

KRWV 020330Z AUTO 16011G15KT 10SM CLR 18/13 A2996 RMK AO2 T01780130
Observed
Apr-2 @ 03:30 UTC
Wind
  • 160° at 11 KTS
  • Gusting to 15 KTS
Visibility
10 SM
Flight Rules
VFR
Cloud Levels
  • Clear skies
Temperature
18°C / 64°F
Dewpoint
13°C / 55°F
Humidity
73%
Altimeter
29.96" Hg
Pressure
1014.52 hPa
Previous

59 mins ago

KRWV 020310Z AUTO 14009KT 10SM CLR 18/13 A2996 RMK AO2 T01810130
Observed
Apr-2 @ 03:10 UTC
Wind
  • 140° at 9 KTS
Visibility
10 SM
Flight Rules
VFR
Cloud Levels
  • Clear skies
Temperature
18°C / 64°F
Dewpoint
13°C / 55°F
Humidity
73%
Altimeter
29.96" Hg
Pressure
1014.52 hPa
Previous

1 hour ago

KRWV 020250Z AUTO 15008KT 10SM CLR 18/13 A2997 RMK AO2 T01820128
Observed
Apr-2 @ 02:50 UTC
Wind
  • 150° at 8 KTS
Visibility
10 SM
Flight Rules
VFR
Cloud Levels
  • Clear skies
Temperature
18°C / 64°F
Dewpoint
13°C / 55°F
Humidity
73%
Altimeter
29.97" Hg
Pressure
1014.92 hPa